TimeCDT,TemperatureF,Dew PointF,Humidity,Sea Level PressureIn,VisibilityMPH,Wind Direction,Wind SpeedMPH,Gust SpeedMPH,PrecipitationIn,Events,Conditions,WindDirDegrees,DateUTC
12:15 AM,59.0,32.0,36,29.91,10.0,South,16.1,-,N/A,,Scattered Clouds,170,2013-03-10 06:15:00
12:35 AM,59.0,32.0,36,29.90,10.0,South,19.6,25.3,N/A,,Overcast,170,2013-03-10 06:35:00
12:55 AM,59.0,33.8,39,29.90,10.0,South,19.6,25.3,N/A,,Overcast,180,2013-03-10 06:55:00
1:15 AM,60.8,33.8,36,29.89,10.0,South,21.9,28.8,N/A,,Mostly Cloudy,180,2013-03-10 07:15:00
1:35 AM,60.8,33.8,36,29.89,10.0,South,19.6,27.6,N/A,,Scattered Clouds,180,2013-03-10 07:35:00
1:55 AM,60.8,35.6,39,29.89,10.0,South,20.7,31.1,N/A,,Scattered Clouds,180,2013-03-10 07:55:00
3:15 AM,60.8,35.6,39,29.87,10.0,South,18.4,26.5,N/A,,Mostly Cloudy,170,2013-03-10 08:15:00
3:35 AM,59.0,35.6,42,29.86,10.0,South,20.7,27.6,N/A,,Scattered Clouds,170,2013-03-10 08:35:00
3:55 AM,59.0,35.6,42,29.86,10.0,South,20.7,27.6,N/A,,Clear,180,2013-03-10 08:55:00
4:15 AM,59.0,35.6,42,29.86,10.0,South,17.3,24.2,N/A,,Clear,170,2013-03-10 09:15:00
4:35 AM,59.0,37.4,45,29.86,10.0,South,20.7,25.3,N/A,,Clear,170,2013-03-10 09:35:00
4:55 AM,59.0,37.4,45,29.87,10.0,South,18.4,24.2,N/A,,Clear,180,2013-03-10 09:55:00
5:15 AM,59.0,39.2,48,29.86,10.0,South,19.6,24.2,N/A,,Clear,170,2013-03-10 10:15:00
5:35 AM,59.0,39.2,48,29.85,10.0,South,15.0,21.9,N/A,,Clear,170,2013-03-10 10:35:00
5:55 AM,59.0,41.0,51,29.86,10.0,South,16.1,-,N/A,,Clear,180,2013-03-10 10:55:00
6:15 AM,59.0,41.0,51,29.86,10.0,South,12.7,21.9,N/A,,Clear,180,2013-03-10 11:15:00
6:35 AM,59.0,41.0,51,29.86,10.0,South,17.3,23.0,N/A,,Clear,180,2013-03-10 11:35:00
6:55 AM,59.0,42.8,55,29.87,20.0,South,11.5,-,N/A,,Mostly Cloudy,180,2013-03-10 11:55:00
7:55 AM,60.8,44.6,55,29.86,20.0,South,13.8,20.7,N/A,,Overcast,170,2013-03-10 12:55:00
8:55 AM,62.6,44.6,52,29.83,20.0,South,13.8,24.2,N/A,,Mostly Cloudy,170,2013-03-10 13:55:00
9:55 AM,62.6,44.6,52,29.82,20.0,South,17.3,27.6,N/A,,Mostly Cloudy,180,2013-03-10 14:55:00
10:55 AM,64.4,46.4,52,29.81,20.0,South,26.5,41.4,N/A,,Mostly Cloudy,180,2013-03-10 15:55:00
11:55 AM,64.4,46.4,52,29.78,20.0,South,20.7,28.8,N/A,,Mostly Cloudy,180,2013-03-10 16:55:00
12:53 PM,64.4,46.4,52,29.75,15.0,South,16.1,32.2,N/A,,Overcast,170,2013-03-10 17:53:00
1:54 PM,66.2,46.4,49,29.73,15.0,South,17.3,34.5,N/A,,Overcast,180,2013-03-10 18:54:00
2:53 PM,62.6,51.8,68,29.71,12.0,South,20.7,40.3,N/A,Rain,Light Rain,190,2013-03-10 19:53:00
3:54 PM,53.6,51.8,94,29.77,4.0,NW,15.0,-,N/A,Rain,Light Rain,320,2013-03-10 20:54:00
4:52 PM,51.8,51.8,100,29.78,5.0,WNW,9.2,-,N/A,Rain,Light Rain,290,2013-03-10 21:52:00
5:51 PM,51.8,51.8,100,29.75,10.0,SE,8.1,-,N/A,Rain,Light Rain,130,2013-03-10 22:51:00
6:54 PM,51.8,51.8,100,29.76,15.0,SE,9.2,-,N/A,,Overcast,140,2013-03-10 23:54:00
8:15 PM,50.0,50.0,100,29.78,10.0,SSE,5.8,-,N/A,,Overcast,160,2013-03-11 01:15:00
8:35 PM,50.0,50.0,100,29.77,10.0,SSE,5.8,-,N/A,,Mostly Cloudy,160,2013-03-11 01:35:00
8:55 PM,50.0,50.0,100,29.78,10.0,WSW,4.6,-,N/A,,Mostly Cloudy,240,2013-03-11 01:55:00
9:15 PM,50.0,50.0,100,29.78,10.0,South,5.8,-,N/A,,Mostly Cloudy,190,2013-03-11 02:15:00
9:35 PM,50.0,50.0,100,29.77,10.0,South,5.8,-,N/A,,Unknown,180,2013-03-11 02:35:00
9:55 PM,50.0,50.0,100,29.77,10.0,SSE,9.2,-,N/A,,Clear,160,2013-03-11 02:55:00
10:15 PM,50.0,48.2,94,29.77,10.0,South,8.1,-,N/A,,Clear,190,2013-03-11 03:15:00
10:35 PM,50.0,48.2,94,29.77,10.0,South,6.9,-,N/A,,Scattered Clouds,190,2013-03-11 03:35:00
10:55 PM,50.0,48.2,94,29.77,10.0,SSW,5.8,-,N/A,,Mostly Cloudy,210,2013-03-11 03:55:00
11:15 PM,50.0,50.0,100,29.77,10.0,SSW,8.1,-,N/A,,Overcast,200,2013-03-11 04:15:00
11:35 PM,50.0,50.0,100,29.78,10.0,SSW,8.1,-,N/A,,Overcast,200,2013-03-11 04:35:00
11:55 PM,51.8,50.0,94,29.77,10.0,South,11.5,-,0.01,,Overcast,190,2013-03-11 04:55:00
12:15 AM,51.8,50.0,94,29.76,10.0,South,11.5,-,N/A,,Overcast,190,2013-03-11 05:15:00
12:35 AM,51.8,50.0,94,29.76,10.0,South,10.4,-,N/A,,Overcast,190,2013-03-11 05:35:00
12:55 AM,51.8,50.0,94,29.76,3.0,SW,6.9,-,N/A,Rain,Light Rain,220,2013-03-11 05:55:00